This is the latest recevied weather packets stored in our database for station/object WX5KDM. If no packets are shown the sender has not sent any weather packets the latest 1 day(s).
| Time | Temp. | Humidity | Pressure | Rain* | Wind** | Luminosity | Snow |
|---|---|---|---|---|---|---|---|
| 1778080433 | 19.44° C | 99% | 1012.2 hPa | 0 mm | - | - | - |
| 1778079827 | 19.44° C | 99% | 1012.6 hPa | 0 mm | - | - | - |
| 1778079220 | 19.44° C | 99% | 1012.6 hPa | 0 mm | - | - | - |
| 1778078918 | 19.44° C | 99% | 1012.5 hPa | 0 mm | - | - | - |
| 1778078614 | 19.44° C | 99% | 1012.6 hPa | 0 mm | - | - | - |
| 1778077405 | 18.89° C | 98% | 1012.4 hPa | 0 mm | - | - | - |
| 1778076499 | 18.89° C | 98% | 1012.3 hPa | 0 mm | - | - | - |
| 1778074982 | 18.89° C | 98% | 1012.3 hPa | 0 mm | - | - | - |
| 1778073770 | 18.33° C | 98% | 1012.2 hPa | 0 mm | - | - | - |
| 1778073468 | 18.33° C | 98% | 1012.4 hPa | 0 mm | - | - | - |
| 1778072860 | 18.33° C | 98% | 1012.2 hPa | 0 mm | - | - | - |
| 1778072557 | 18.33° C | 98% | 1012.6 hPa | 0 mm | - | - | - |
| 1778071953 | 18.89° C | 98% | 1012.1 hPa | 0 mm | - | - | - |
| 1778069836 | 18.33° C | 97% | 1011.4 hPa | 0 mm | - | - | - |
| 1778069230 | 18.33° C | 96% | 1011.7 hPa | 0 mm | - | - | - |
| 1778066205 | 20.56° C | 93% | 1011.2 hPa | 0 mm | - | - | - |
| 1778065297 | 22.22° C | 89% | 1009.7 hPa | 0 mm | - | - | - |
| 1778063783 | 22.22° C | 88% | 1009.4 hPa | 0 mm | - | - | - |
| 1778063178 | 22.22° C | 88% | 1009.6 hPa | 0 mm | - | - | - |
| 1778062875 | 22.22° C | 88% | 1009.5 hPa | 0 mm | - | - | - |
| 1778061967 | 21.67° C | 88% | 1009.6 hPa | 0 mm | - | - | - |
| 1778060757 | 22.22° C | 87% | 1009.1 hPa | 0 mm | - | - | - |
| 1778060153 | 22.22° C | 87% | 1009.2 hPa | 0 mm | - | - | - |
| 1778059548 | 22.22° C | 87% | 1008.8 hPa | 0 mm | - | - | - |
| 1778059244 | 22.22° C | 87% | 1008.7 hPa | 0 mm | - | - | - |
* Rain latest hour (hover to see other rain measurements)
** Current wind speed in m/s (hover to see current wind gust speed)